Time;durP1;ratioP1;P1;durP2;ratioP2;P2;SDS_P1;SDS_P2;PMS_P1;PMS_P2;Temp;Humidity;BMP_temperature;BMP_pressure;BME280_temperature;BME280_humidity;BME280_pressure;Samples;Min_cycle;Max_cycle;Signal;HPM_P1;HPM_P2
2021/11/29 00:01:26;;;;;;;2.40;0.60;;;;;;;;;;5008245;28;20048;-57
2021/11/29 00:03:53;;;;;;;1.45;0.50;;;;;;;;;;5007350;28;20602;-56
2021/11/29 00:06:19;;;;;;;1.95;0.70;;;;;;;;;;5008546;28;20041;-56
2021/11/29 00:08:46;;;;;;;2.22;0.70;;;;;;;;;;5007614;28;20508;-55
2021/11/29 00:11:12;;;;;;;4.93;0.98;;;;;;;;;;5008846;28;20037;-57
2021/11/29 00:13:38;;;;;;;9.05;1.17;;;;;;;;;;5007731;28;20030;-57
2021/11/29 00:16:04;;;;;;;6.80;1.20;;;;;;;;;;5010886;28;20057;-57
2021/11/29 00:18:30;;;;;;;3.45;1.10;;;;;;;;;;5006892;28;20046;-55
2021/11/29 00:20:56;;;;;;;3.85;1.20;;;;;;;;;;5009770;28;20041;-55
2021/11/29 00:23:22;;;;;;;6.88;1.30;;;;;;;;;;5006146;28;20530;-56
2021/11/29 00:25:48;;;;;;;4.97;1.40;;;;;;;;;;5008329;28;20038;-56
2021/11/29 00:28:16;;;;;;;7.25;1.42;;;;;;;;;;5006473;28;20091;-57
2021/11/29 00:30:42;;;;;;;5.43;1.38;;;;;;;;;;5006889;28;20049;-56
2021/11/29 00:33:08;;;;;;;4.78;1.55;;;;;;;;;;5005716;28;20477;-56
2021/11/29 00:35:34;;;;;;;7.75;1.80;;;;;;;;;;5007465;28;20038;-57
2021/11/29 00:38:00;;;;;;;7.95;1.60;;;;;;;;;;5004456;28;20193;-55
2021/11/29 00:40:27;;;;;;;4.20;1.20;;;;;;;;;;5007102;28;20072;-57
2021/11/29 00:42:53;;;;;;;16.45;5.63;;;;;;;;;;4988876;28;20041;-57
2021/11/29 00:45:19;;;;;;;5.90;2.13;;;;;;;;;;5006862;28;20052;-55
2021/11/29 00:47:44;;;;;;;4.75;1.55;;;;;;;;;;5007386;28;20038;-57
2021/11/29 00:50:11;;;;;;;5.85;1.27;;;;;;;;;;5006266;28;20060;-57
2021/11/29 00:52:38;;;;;;;3.85;1.23;;;;;;;;;;5006203;28;20038;-54
2021/11/29 00:55:04;;;;;;;4.07;1.20;;;;;;;;;;4988039;28;20136;-57
2021/11/29 00:57:30;;;;;;;7.97;1.48;;;;;;;;;;5005787;28;20044;-56
2021/11/29 00:59:56;;;;;;;3.42;1.35;;;;;;;;;;5005954;28;20045;-56
2021/11/29 01:02:22;;;;;;;3.13;1.10;;;;;;;;;;4989445;28;20075;-55
2021/11/29 01:04:48;;;;;;;6.43;1.48;;;;;;;;;;5006857;28;20037;-57
2021/11/29 01:07:14;;;;;;;3.30;1.33;;;;;;;;;;5008595;28;20052;-55
2021/11/29 01:09:41;;;;;;;8.00;1.98;;;;;;;;;;5005543;28;20664;-55
2021/11/29 01:12:07;;;;;;;5.20;1.90;;;;;;;;;;5006805;28;20049;-55
2021/11/29 01:14:33;;;;;;;11.23;2.70;;;;;;;;;;5007189;28;20100;-55
2021/11/29 01:16:59;;;;;;;7.47;2.33;;;;;;;;;;5006682;28;20052;-56
2021/11/29 01:19:25;;;;;;;7.55;2.50;;;;;;;;;;5005961;28;20049;-55
2021/11/29 01:21:51;;;;;;;5.15;1.90;;;;;;;;;;5007803;28;20044;-53
2021/11/29 01:24:17;;;;;;;7.13;2.00;;;;;;;;;;5007091;28;20084;-56
2021/11/29 01:26:43;;;;;;;5.55;1.80;;;;;;;;;;5006701;28;20100;-56
2021/11/29 01:29:09;;;;;;;5.72;1.80;;;;;;;;;;5006857;28;20137;-54
2021/11/29 01:31:35;;;;;;;6.43;1.85;;;;;;;;;;5006844;28;20036;-54
2021/11/29 01:34:01;;;;;;;4.43;1.30;;;;;;;;;;5007576;28;20048;-54
2021/11/29 01:36:27;;;;;;;5.22;1.73;;;;;;;;;;5005654;28;20502;-59
2021/11/29 01:38:53;;;;;;;4.57;1.30;;;;;;;;;;5004778;28;20049;-57
2021/11/29 01:41:19;;;;;;;5.63;1.50;;;;;;;;;;5004890;28;20111;-55
2021/11/29 01:43:45;;;;;;;4.00;1.48;;;;;;;;;;5006443;28;21008;-55
2021/11/29 01:46:11;;;;;;;5.63;1.45;;;;;;;;;;5006391;28;20108;-57
2021/11/29 01:48:37;;;;;;;4.75;1.35;;;;;;;;;;5006188;28;20136;-56
2021/11/29 01:51:04;;;;;;;3.92;1.48;;;;;;;;;;5005428;28;20179;-56
2021/11/29 01:53:31;;;;;;;5.07;1.40;;;;;;;;;;5005946;28;20068;-55
2021/11/29 01:55:58;;;;;;;5.05;1.60;;;;;;;;;;5006543;28;20138;-55
2021/11/29 01:58:28;;;;;;;4.28;1.33;;;;;;;;;;5005281;28;20034;-53
2021/11/29 02:00:55;;;;;;;3.95;1.60;;;;;;;;;;5005716;28;20053;-56
2021/11/29 02:03:24;;;;;;;2.97;1.25;;;;;;;;;;5006873;28;20533;-57
2021/11/29 02:05:50;;;;;;;4.10;1.42;;;;;;;;;;5006872;28;20092;-56
2021/11/29 02:08:17;;;;;;;5.93;1.55;;;;;;;;;;5004967;28;20569;-57
2021/11/29 02:10:42;;;;;;;5.03;1.83;;;;;;;;;;5006104;28;20061;-56
2021/11/29 02:13:09;;;;;;;4.15;1.45;;;;;;;;;;5006826;28;20173;-57
2021/11/29 02:15:37;;;;;;;5.80;1.33;;;;;;;;;;5005255;28;20561;-55
2021/11/29 02:18:04;;;;;;;3.45;1.15;;;;;;;;;;5005422;28;20042;-57
2021/11/29 02:20:31;;;;;;;5.80;1.08;;;;;;;;;;5006051;28;20038;-58
2021/11/29 02:22:57;;;;;;;3.92;1.10;;;;;;;;;;5005868;28;20033;-56
2021/11/29 02:25:23;;;;;;;3.20;0.90;;;;;;;;;;5005037;28;20049;-57
2021/11/29 02:27:50;;;;;;;2.55;0.90;;;;;;;;;;5005351;28;20099;-55
2021/11/29 02:30:17;;;;;;;2.10;0.80;;;;;;;;;;5007288;28;20046;-58
2021/11/29 02:32:43;;;;;;;5.28;1.30;;;;;;;;;;4998482;28;20848;-56
2021/11/29 02:35:09;;;;;;;3.40;1.30;;;;;;;;;;5006679;28;20112;-56
2021/11/29 02:37:35;;;;;;;3.55;1.50;;;;;;;;;;5004871;28;20401;-54
2021/11/29 02:40:02;;;;;;;7.40;1.58;;;;;;;;;;5006288;28;20048;-55
2021/11/29 02:42:28;;;;;;;4.75;1.92;;;;;;;;;;5004690;28;20042;-57
2021/11/29 02:44:54;;;;;;;4.47;1.73;;;;;;;;;;5005193;28;20104;-57
2021/11/29 02:47:20;;;;;;;3.50;1.38;;;;;;;;;;5005409;28;20042;-58
2021/11/29 02:49:47;;;;;;;5.38;2.03;;;;;;;;;;5004722;28;20051;-56
2021/11/29 02:52:14;;;;;;;4.30;1.60;;;;;;;;;;5005935;28;20144;-57
2021/11/29 02:54:40;;;;;;;6.40;1.85;;;;;;;;;;5007820;28;20030;-56
2021/11/29 02:57:10;;;;;;;5.70;1.90;;;;;;;;;;5009041;28;20042;-56
2021/11/29 02:59:36;;;;;;;7.93;2.83;;;;;;;;;;5007457;28;20085;-55
2021/11/29 03:02:04;;;;;;;6.43;3.25;;;;;;;;;;5008931;28;20068;-55
2021/11/29 03:04:32;;;;;;;4.22;1.60;;;;;;;;;;5008516;28;20053;-57
2021/11/29 03:06:58;;;;;;;3.33;1.23;;;;;;;;;;5009140;28;20042;-56
2021/11/29 03:09:24;;;;;;;3.10;1.10;;;;;;;;;;5006918;28;20057;-57
2021/11/29 03:11:50;;;;;;;4.88;1.50;;;;;;;;;;5010674;28;20034;-56
2021/11/29 03:14:17;;;;;;;2.35;0.85;;;;;;;;;;5009351;28;20065;-56
2021/11/29 03:16:43;;;;;;;3.22;1.25;;;;;;;;;;5008951;28;20067;-57
2021/11/29 03:19:09;;;;;;;2.45;0.95;;;;;;;;;;5008661;28;20038;-57
2021/11/29 03:21:35;;;;;;;2.80;1.00;;;;;;;;;;5007225;28;20033;-57
2021/11/29 03:24:03;;;;;;;3.55;1.25;;;;;;;;;;5011707;28;20038;-57
2021/11/29 03:26:30;;;;;;;2.90;1.10;;;;;;;;;;5009988;28;20057;-57
2021/11/29 03:28:59;;;;;;;3.53;1.20;;;;;;;;;;5008999;28;20046;-54
2021/11/29 03:31:26;;;;;;;2.80;1.00;;;;;;;;;;5010381;28;20046;-56
2021/11/29 03:33:57;;;;;;;3.70;1.20;;;;;;;;;;5011419;28;20069;-57
2021/11/29 03:36:25;;;;;;;2.90;1.00;;;;;;;;;;5010818;28;20584;-57
2021/11/29 03:38:51;;;;;;;3.10;0.88;;;;;;;;;;5008081;28;20057;-57
2021/11/29 03:41:16;;;;;;;1.83;0.70;;;;;;;;;;5009343;28;20050;-56
2021/11/29 03:43:43;;;;;;;2.35;0.70;;;;;;;;;;4989392;28;20034;-56
2021/11/29 03:46:09;;;;;;;1.55;0.50;;;;;;;;;;5008758;28;20045;-56
2021/11/29 03:48:35;;;;;;;2.28;0.70;;;;;;;;;;5005874;28;20046;-57
2021/11/29 03:51:02;;;;;;;1.30;0.57;;;;;;;;;;5009072;28;20446;-56
2021/11/29 03:53:28;;;;;;;2.05;0.63;;;;;;;;;;5008543;28;20437;-56
2021/11/29 03:55:54;;;;;;;1.92;0.60;;;;;;;;;;5010650;28;20034;-57
2021/11/29 03:58:20;;;;;;;1.80;0.60;;;;;;;;;;5007308;28;22166;-55
2021/11/29 04:00:46;;;;;;;1.15;0.50;;;;;;;;;;5010105;28;20041;-56
2021/11/29 04:03:12;;;;;;;1.42;0.52;;;;;;;;;;5008606;28;20038;-55
2021/11/29 04:05:38;;;;;;;2.50;0.65;;;;;;;;;;5008149;28;20033;-56
2021/11/29 04:08:05;;;;;;;1.25;0.47;;;;;;;;;;4989590;28;20034;-55
2021/11/29 04:10:30;;;;;;;1.13;0.50;;;;;;;;;;5009168;28;20767;-55
2021/11/29 04:12:57;;;;;;;0.90;0.43;;;;;;;;;;5009257;28;20041;-54
2021/11/29 04:15:22;;;;;;;1.48;0.50;;;;;;;;;;5006886;28;20130;-52
2021/11/29 04:17:49;;;;;;;1.95;0.60;;;;;;;;;;5008131;28;20049;-55
2021/11/29 04:20:15;;;;;;;0.73;0.38;;;;;;;;;;5008845;28;20124;-56
2021/11/29 04:22:45;;;;;;;1.15;0.47;;;;;;;;;;5006449;28;20130;-56
2021/11/29 04:25:12;;;;;;;2.13;0.40;;;;;;;;;;5007916;28;20888;-56
2021/11/29 04:27:40;;;;;;;0.88;0.40;;;;;;;;;;5007869;28;20136;-56
2021/11/29 04:30:11;;;;;;;1.77;0.50;;;;;;;;;;5008113;28;20107;-56
2021/11/29 04:32:37;;;;;;;1.17;0.40;;;;;;;;;;5008763;28;20145;-58
2021/11/29 04:35:04;;;;;;;1.15;0.50;;;;;;;;;;5008867;28;20060;-56
2021/11/29 04:37:30;;;;;;;0.63;0.40;;;;;;;;;;5007602;28;20034;-57
2021/11/29 04:39:55;;;;;;;1.35;0.40;;;;;;;;;;5008885;28;20934;-57
2021/11/29 04:42:21;;;;;;;1.13;0.40;;;;;;;;;;5008692;28;20045;-56
2021/11/29 04:44:47;;;;;;;1.05;0.50;;;;;;;;;;5009983;28;20065;-55
2021/11/29 04:47:13;;;;;;;0.73;0.40;;;;;;;;;;5009291;28;20551;-56
2021/11/29 04:49:39;;;;;;;1.35;0.40;;;;;;;;;;5008445;28;20151;-57
2021/11/29 04:52:05;;;;;;;1.42;0.40;;;;;;;;;;5008345;28;20042;-57
2021/11/29 04:54:31;;;;;;;1.35;0.43;;;;;;;;;;5006908;28;20487;-56
2021/11/29 04:56:57;;;;;;;0.75;0.40;;;;;;;;;;5008183;28;20403;-56
2021/11/29 04:59:23;;;;;;;2.28;0.50;;;;;;;;;;5006524;28;20037;-56
2021/11/29 05:01:49;;;;;;;1.50;0.50;;;;;;;;;;4999133;28;20529;-54
2021/11/29 05:04:15;;;;;;;1.67;0.50;;;;;;;;;;5007781;28;20045;-57
2021/11/29 05:06:41;;;;;;;1.23;0.45;;;;;;;;;;5006497;28;20034;-53
2021/11/29 05:09:09;;;;;;;1.27;0.50;;;;;;;;;;5008552;28;20045;-55
2021/11/29 05:11:35;;;;;;;1.52;0.50;;;;;;;;;;5008926;28;20133;-54
2021/11/29 05:14:01;;;;;;;1.08;0.50;;;;;;;;;;5009295;28;20044;-57
2021/11/29 05:16:27;;;;;;;1.63;0.50;;;;;;;;;;5009148;28;20045;-54
2021/11/29 05:18:53;;;;;;;1.65;0.60;;;;;;;;;;5006986;28;20544;-56
2021/11/29 05:21:20;;;;;;;3.00;0.60;;;;;;;;;;5008344;28;20045;-57
2021/11/29 05:23:47;;;;;;;1.70;0.50;;;;;;;;;;5009925;28;20042;-56
2021/11/29 05:26:23;;;;;;;2.03;0.63;;;;;;;;;;5007767;28;20033;-56
2021/11/29 05:28:52;;;;;;;2.47;0.52;;;;;;;;;;5005595;28;20060;-57
2021/11/29 05:31:18;;;;;;;1.88;0.60;;;;;;;;;;5007544;28;20037;-55
2021/11/29 05:33:44;;;;;;;2.03;0.60;;;;;;;;;;5005507;28;20785;-57
2021/11/29 05:36:10;;;;;;;1.30;0.50;;;;;;;;;;5007898;28;20041;-57
2021/11/29 05:38:35;;;;;;;1.73;0.60;;;;;;;;;;5004781;28;20057;-57
2021/11/29 05:41:02;;;;;;;1.10;0.47;;;;;;;;;;5005824;28;20413;-57
2021/11/29 05:43:28;;;;;;;1.52;0.60;;;;;;;;;;5005850;28;20034;-57
2021/11/29 05:45:54;;;;;;;1.58;0.55;;;;;;;;;;5006175;28;20038;-57
2021/11/29 05:48:20;;;;;;;1.83;0.70;;;;;;;;;;5006884;28;20123;-58
2021/11/29 05:50:46;;;;;;;3.30;0.93;;;;;;;;;;5006780;28;20130;-56
2021/11/29 05:53:12;;;;;;;2.67;0.80;;;;;;;;;;5006928;28;20050;-58
2021/11/29 05:55:38;;;;;;;3.20;1.00;;;;;;;;;;5006353;28;20119;-57
2021/11/29 05:58:04;;;;;;;2.13;0.70;;;;;;;;;;5005113;28;20043;-57
2021/11/29 06:00:30;;;;;;;1.67;0.68;;;;;;;;;;5005710;28;20033;-55
2021/11/29 06:02:56;;;;;;;2.70;0.90;;;;;;;;;;5007083;28;20048;-55
2021/11/29 06:05:24;;;;;;;2.78;0.85;;;;;;;;;;5005929;28;20034;-56
2021/11/29 06:07:50;;;;;;;3.33;0.90;;;;;;;;;;5004720;28;20041;-55
2021/11/29 06:10:16;;;;;;;2.22;0.80;;;;;;;;;;5004965;28;20050;-57
2021/11/29 06:12:43;;;;;;;2.47;0.90;;;;;;;;;;5004641;28;20513;-54
2021/11/29 06:15:10;;;;;;;2.58;1.02;;;;;;;;;;5005973;28;20048;-58
2021/11/29 06:17:36;;;;;;;3.67;1.27;;;;;;;;;;5005097;28;20065;-57
2021/11/29 06:20:02;;;;;;;2.72;1.00;;;;;;;;;;5005788;28;20157;-55
2021/11/29 06:22:28;;;;;;;3.78;1.33;;;;;;;;;;5005991;28;20046;-54
2021/11/29 06:24:54;;;;;;;4.35;1.25;;;;;;;;;;5006896;28;20052;-56
2021/11/29 06:27:20;;;;;;;5.07;1.10;;;;;;;;;;5005308;28;20054;-56
2021/11/29 06:29:46;;;;;;;3.10;1.02;;;;;;;;;;5008464;28;20771;-56
2021/11/29 06:32:12;;;;;;;3.72;1.10;;;;;;;;;;5010014;28;20866;-57
2021/11/29 06:34:38;;;;;;;4.90;1.63;;;;;;;;;;5008879;28;20041;-57
2021/11/29 06:37:04;;;;;;;3.78;1.80;;;;;;;;;;5009767;28;20049;-57
2021/11/29 06:39:30;;;;;;;6.38;2.10;;;;;;;;;;5008395;28;20103;-56
2021/11/29 06:41:56;;;;;;;4.13;1.80;;;;;;;;;;5008770;28;20141;-57
2021/11/29 06:44:22;;;;;;;4.95;2.15;;;;;;;;;;5009140;28;20056;-57
2021/11/29 06:46:47;;;;;;;6.45;1.75;;;;;;;;;;5008319;28;20036;-56
2021/11/29 06:49:13;;;;;;;7.60;2.72;;;;;;;;;;5010968;28;20451;-57
2021/11/29 06:51:39;;;;;;;4.97;2.30;;;;;;;;;;5010398;28;20494;-56
2021/11/29 06:54:05;;;;;;;7.43;2.50;;;;;;;;;;5010006;28;20145;-57
2021/11/29 06:56:31;;;;;;;6.78;2.60;;;;;;;;;;5010535;28;20037;-55
2021/11/29 06:58:57;;;;;;;8.10;2.38;;;;;;;;;;5010837;28;20037;-57
2021/11/29 07:01:23;;;;;;;5.25;2.20;;;;;;;;;;5009668;28;20790;-56
2021/11/29 07:03:51;;;;;;;5.15;2.47;;;;;;;;;;5009498;28;20037;-57
2021/11/29 07:06:17;;;;;;;4.65;2.08;;;;;;;;;;5009086;28;20073;-57
2021/11/29 07:08:43;;;;;;;5.30;2.55;;;;;;;;;;5007039;28;20046;-55
2021/11/29 07:11:09;;;;;;;6.13;2.40;;;;;;;;;;5009118;28;20037;-56
2021/11/29 07:13:35;;;;;;;5.93;2.58;;;;;;;;;;5008381;28;20040;-57
2021/11/29 07:16:01;;;;;;;6.43;2.33;;;;;;;;;;5008801;28;20510;-57
2021/11/29 07:18:26;;;;;;;5.10;2.38;;;;;;;;;;5007435;28;20042;-56
2021/11/29 07:20:53;;;;;;;5.60;2.50;;;;;;;;;;5007405;28;20045;-57
2021/11/29 07:23:19;;;;;;;6.53;2.58;;;;;;;;;;5009236;28;20029;-55
2021/11/29 07:25:44;;;;;;;6.65;2.45;;;;;;;;;;5009292;28;20059;-55
2021/11/29 07:28:10;;;;;;;5.78;2.63;;;;;;;;;;5008016;28;20080;-55
2021/11/29 07:30:36;;;;;;;6.78;2.38;;;;;;;;;;5008805;28;20049;-55
2021/11/29 07:33:02;;;;;;;6.55;2.15;;;;;;;;;;5008174;28;20052;-56
2021/11/29 07:35:29;;;;;;;5.68;2.33;;;;;;;;;;5007585;28;20630;-56
2021/11/29 07:37:57;;;;;;;6.53;2.47;;;;;;;;;;5006875;28;21760;-56
2021/11/29 07:40:29;;;;;;;6.75;2.28;;;;;;;;;;5008526;28;20052;-56
2021/11/29 07:42:59;;;;;;;5.05;2.20;;;;;;;;;;5010112;28;20062;-56
2021/11/29 07:45:26;;;;;;;5.65;1.98;;;;;;;;;;4999717;28;20269;-56
2021/11/29 07:47:52;;;;;;;5.22;2.30;;;;;;;;;;5009487;28;20083;-56
2021/11/29 07:50:18;;;;;;;5.35;1.98;;;;;;;;;;5008897;28;20053;-55
2021/11/29 07:52:45;;;;;;;4.30;1.88;;;;;;;;;;5009274;28;20060;-56
2021/11/29 07:55:12;;;;;;;7.35;2.53;;;;;;;;;;5011761;28;20137;-56
2021/11/29 07:57:38;;;;;;;7.57;2.60;;;;;;;;;;5008680;28;20037;-58
2021/11/29 08:00:06;;;;;;;6.13;2.35;;;;;;;;;;5011192;28;20069;-57
2021/11/29 08:02:32;;;;;;;6.53;2.58;;;;;;;;;;5011516;28;20060;-57
2021/11/29 08:04:58;;;;;;;5.22;2.30;;;;;;;;;;5010895;28;20132;-56
2021/11/29 08:07:24;;;;;;;6.60;2.65;;;;;;;;;;5008640;28;20133;-55
2021/11/29 08:09:50;;;;;;;5.43;2.22;;;;;;;;;;5010167;28;20484;-56
2021/11/29 08:12:16;;;;;;;4.78;2.00;;;;;;;;;;5010648;28;20558;-55
2021/11/29 08:14:42;;;;;;;4.07;1.65;;;;;;;;;;5008498;28;20042;-53
2021/11/29 08:17:08;;;;;;;4.32;1.88;;;;;;;;;;5011029;28;20033;-57
2021/11/29 08:19:33;;;;;;;4.07;2.03;;;;;;;;;;5010547;28;20042;-56
2021/11/29 08:21:59;;;;;;;5.10;2.05;;;;;;;;;;5008453;28;20141;-53
2021/11/29 08:24:25;;;;;;;4.32;1.70;;;;;;;;;;5009487;28;20085;-57
2021/11/29 08:26:51;;;;;;;6.97;2.20;;;;;;;;;;5010625;28;20042;-56
2021/11/29 08:29:17;;;;;;;4.13;1.63;;;;;;;;;;5008936;28;20051;-52
2021/11/29 08:31:43;;;;;;;6.07;2.22;;;;;;;;;;5007031;28;20034;-56
2021/11/29 08:34:09;;;;;;;4.63;2.10;;;;;;;;;;5010188;28;20804;-52
2021/11/29 08:36:35;;;;;;;5.72;2.20;;;;;;;;;;5008877;28;20045;-56
2021/11/29 08:39:01;;;;;;;3.97;1.70;;;;;;;;;;5008316;28;20049;-54
2021/11/29 08:41:27;;;;;;;4.60;1.73;;;;;;;;;;5000122;28;20049;-53
2021/11/29 08:43:53;;;;;;;5.82;2.08;;;;;;;;;;5009971;28;20048;-56
2021/11/29 08:46:19;;;;;;;4.43;1.67;;;;;;;;;;5010874;28;20037;-56
2021/11/29 08:48:45;;;;;;;4.97;1.50;;;;;;;;;;5010057;28;20041;-53
2021/11/29 08:51:11;;;;;;;4.05;1.45;;;;;;;;;;5008437;28;20048;-55
2021/11/29 08:53:38;;;;;;;3.88;1.48;;;;;;;;;;5008479;28;20037;-56
2021/11/29 08:56:04;;;;;;;3.90;1.38;;;;;;;;;;5007849;28;20038;-54
2021/11/29 08:58:30;;;;;;;5.40;1.50;;;;;;;;;;5007648;28;20034;-55
2021/11/29 09:00:56;;;;;;;2.65;1.15;;;;;;;;;;5010721;28;20041;-55
2021/11/29 09:03:23;;;;;;;3.03;1.17;;;;;;;;;;5009089;28;20499;-55
2021/11/29 09:05:49;;;;;;;2.85;1.10;;;;;;;;;;5008855;28;20045;-52
2021/11/29 09:08:15;;;;;;;3.30;1.27;;;;;;;;;;5009244;28;20064;-56
2021/11/29 09:10:42;;;;;;;2.60;0.98;;;;;;;;;;5005761;28;20193;-56
2021/11/29 09:13:08;;;;;;;2.08;0.80;;;;;;;;;;5008408;28;20144;-55
2021/11/29 09:15:34;;;;;;;2.88;1.00;;;;;;;;;;4988648;28;20591;-56
2021/11/29 09:18:00;;;;;;;2.05;0.70;;;;;;;;;;5007347;28;20038;-57
2021/11/29 09:20:27;;;;;;;2.70;0.88;;;;;;;;;;5007780;28;20073;-55
2021/11/29 09:22:53;;;;;;;2.47;0.90;;;;;;;;;;5007476;28;20124;-55
2021/11/29 09:25:19;;;;;;;3.15;1.00;;;;;;;;;;5007470;28;20037;-57
2021/11/29 09:27:45;;;;;;;2.88;0.98;;;;;;;;;;5006794;28;20041;-56
2021/11/29 09:30:12;;;;;;;3.75;1.10;;;;;;;;;;5007753;28;20053;-54
2021/11/29 09:32:38;;;;;;;4.25;0.90;;;;;;;;;;5006736;28;20037;-58
2021/11/29 09:35:06;;;;;;;2.45;0.90;;;;;;;;;;5007289;28;20451;-55
2021/11/29 09:37:32;;;;;;;2.80;1.00;;;;;;;;;;5005861;28;20072;-56
2021/11/29 09:39:58;;;;;;;2.50;0.73;;;;;;;;;;5005748;28;20133;-55
2021/11/29 09:42:24;;;;;;;2.13;0.80;;;;;;;;;;5005341;28;20490;-56
2021/11/29 09:44:53;;;;;;;3.20;1.00;;;;;;;;;;4989338;28;20048;-56
2021/11/29 09:47:19;;;;;;;2.78;0.85;;;;;;;;;;5004638;28;20129;-56
2021/11/29 09:49:45;;;;;;;3.03;1.08;;;;;;;;;;5005836;28;20507;-55
2021/11/29 09:52:11;;;;;;;3.25;0.90;;;;;;;;;;5006977;28;20038;-57
2021/11/29 09:54:37;;;;;;;3.60;1.08;;;;;;;;;;5006893;28;20174;-56
2021/11/29 09:57:03;;;;;;;2.33;0.80;;;;;;;;;;5005748;28;20041;-56
2021/11/29 09:59:29;;;;;;;3.65;1.15;;;;;;;;;;5005689;28;20041;-55
2021/11/29 10:01:55;;;;;;;2.88;0.95;;;;;;;;;;5007645;28;20037;-52
2021/11/29 10:04:21;;;;;;;3.38;1.10;;;;;;;;;;5009201;28;20095;-55
2021/11/29 10:06:59;;;;;;;4.70;1.20;;;;;;;;;;5008812;28;20041;-55
2021/11/29 10:09:30;;;;;;;3.40;1.08;;;;;;;;;;5008759;28;20714;-56
2021/11/29 10:12:01;;;;;;;4.10;1.20;;;;;;;;;;5010313;28;20047;-56
2021/11/29 10:14:26;;;;;;;3.13;1.10;;;;;;;;;;5008664;28;20061;-54
2021/11/29 10:16:59;;;;;;;3.13;1.13;;;;;;;;;;4992140;28;20805;-53
2021/11/29 10:19:25;;;;;;;5.45;1.55;;;;;;;;;;5009379;28;20033;-54
2021/11/29 10:21:51;;;;;;;4.25;1.65;;;;;;;;;;5009341;28;20034;-56
2021/11/29 10:24:22;;;;;;;4.38;1.45;;;;;;;;;;5011033;28;20168;-56
2021/11/29 10:26:52;;;;;;;4.82;1.80;;;;;;;;;;5009477;28;20057;-56
2021/11/29 10:29:18;;;;;;;5.90;1.65;;;;;;;;;;5008862;28;20292;-52
2021/11/29 10:31:46;;;;;;;5.20;1.40;;;;;;;;;;5009955;28;20064;-55
2021/11/29 10:34:16;;;;;;;5.15;1.60;;;;;;;;;;5010606;28;20033;-54
2021/11/29 10:36:47;;;;;;;5.88;1.70;;;;;;;;;;5008922;28;20042;-56
2021/11/29 10:39:21;;;;;;;4.30;1.60;;;;;;;;;;5008481;28;20046;-55
2021/11/29 10:41:49;;;;;;;4.25;1.58;;;;;;;;;;5009547;28;20467;-55
2021/11/29 10:44:18;;;;;;;4.82;1.63;;;;;;;;;;5010111;28;20038;-56
2021/11/29 10:46:46;;;;;;;3.00;1.17;;;;;;;;;;5006996;28;20052;-56
2021/11/29 10:49:13;;;;;;;2.75;0.95;;;;;;;;;;5008960;28;20049;-54
2021/11/29 10:51:40;;;;;;;3.53;1.20;;;;;;;;;;4990415;28;20112;-53
2021/11/29 10:54:10;;;;;;;3.42;1.08;;;;;;;;;;5008027;28;20046;-52
2021/11/29 10:56:37;;;;;;;2.47;0.80;;;;;;;;;;4989893;28;20121;-56
2021/11/29 10:59:05;;;;;;;2.15;0.80;;;;;;;;;;5007841;28;20056;-52
2021/11/29 11:01:32;;;;;;;2.70;0.70;;;;;;;;;;5007282;28;20094;-55
2021/11/29 11:03:58;;;;;;;3.20;0.70;;;;;;;;;;5008960;28;20510;-56
2021/11/29 11:06:27;;;;;;;3.42;0.80;;;;;;;;;;5008405;28;20033;-52
2021/11/29 11:08:53;;;;;;;3.30;1.00;;;;;;;;;;5006366;28;20077;-54
2021/11/29 11:11:37;;;;;;;2.55;0.80;;;;;;;;;;5008585;28;20048;-55
2021/11/29 11:14:07;;;;;;;2.78;0.80;;;;;;;;;;5007991;28;20042;-53
2021/11/29 11:16:39;;;;;;;2.67;0.90;;;;;;;;;;5009663;28;20601;-56
2021/11/29 11:19:05;;;;;;;2.60;0.80;;;;;;;;;;5006798;28;20042;-57
2021/11/29 11:21:34;;;;;;;3.00;0.85;;;;;;;;;;4988239;28;20034;-56
2021/11/29 11:24:19;;;;;;;3.63;1.00;;;;;;;;;;5008139;28;20111;-54
2021/11/29 11:26:46;;;;;;;3.55;0.88;;;;;;;;;;4999281;28;20033;-56
2021/11/29 11:29:13;;;;;;;2.03;0.77;;;;;;;;;;5007085;28;21735;-55
2021/11/29 11:31:39;;;;;;;3.45;0.90;;;;;;;;;;5006812;28;20034;-55
2021/11/29 11:34:05;;;;;;;3.95;0.80;;;;;;;;;;5008959;28;20033;-56
2021/11/29 11:36:31;;;;;;;2.45;0.95;;;;;;;;;;5006927;28;20042;-55
2021/11/29 11:39:05;;;;;;;2.38;0.80;;;;;;;;;;5007323;28;20046;-55
2021/11/29 11:41:32;;;;;;;2.55;0.80;;;;;;;;;;5007336;28;20037;-56
2021/11/29 11:43:59;;;;;;;1.48;0.60;;;;;;;;;;5008347;28;20077;-56
2021/11/29 11:46:27;;;;;;;2.95;0.70;;;;;;;;;;5007283;28;20033;-55
2021/11/29 11:48:53;;;;;;;2.78;0.70;;;;;;;;;;5005325;28;20100;-57
2021/11/29 11:51:19;;;;;;;1.20;0.55;;;;;;;;;;5007086;28;20045;-57
2021/11/29 11:53:44;;;;;;;1.02;0.40;;;;;;;;;;5007441;28;20034;-56
2021/11/29 11:56:10;;;;;;;1.50;0.50;;;;;;;;;;5009230;28;20030;-51
2021/11/29 11:58:42;;;;;;;1.35;0.50;;;;;;;;;;5006293;28;20044;-56
2021/11/29 12:01:12;;;;;;;2.22;0.50;;;;;;;;;;5007894;28;20049;-56
2021/11/29 12:03:41;;;;;;;0.82;0.43;;;;;;;;;;5008041;28;20040;-53
2021/11/29 12:06:13;;;;;;;2.90;0.50;;;;;;;;;;5007181;28;20042;-57
2021/11/29 12:08:47;;;;;;;1.45;0.40;;;;;;;;;;5004689;28;20057;-56
2021/11/29 12:11:19;;;;;;;0.90;0.40;;;;;;;;;;5008172;28;20045;-56
2021/11/29 12:13:45;;;;;;;0.38;0.38;;;;;;;;;;4988204;28;20061;-57
2021/11/29 12:16:13;;;;;;;0.75;0.32;;;;;;;;;;5003908;28;20494;-55
2021/11/29 12:18:41;;;;;;;0.40;0.32;;;;;;;;;;5007755;28;20052;-56
2021/11/29 12:21:16;;;;;;;1.08;0.40;;;;;;;;;;5008578;28;20049;-57
2021/11/29 12:23:51;;;;;;;2.30;0.40;;;;;;;;;;5006715;28;20087;-56
2021/11/29 12:26:17;;;;;;;1.13;0.40;;;;;;;;;;5008036;28;20049;-57
2021/11/29 12:28:44;;;;;;;1.33;0.40;;;;;;;;;;5008078;28;20052;-55
2021/11/29 12:31:28;;;;;;;0.52;0.30;;;;;;;;;;5008344;28;20048;-57
2021/11/29 12:33:56;;;;;;;0.32;0.30;;;;;;;;;;5008131;28;20061;-55
2021/11/29 12:36:24;;;;;;;0.30;0.30;;;;;;;;;;5009453;28;20407;-57
2021/11/29 12:38:49;;;;;;;0.50;0.30;;;;;;;;;;5008880;28;20044;-56
2021/11/29 12:41:35;;;;;;;0.75;0.40;;;;;;;;;;5009664;28;20038;-57
2021/11/29 12:44:01;;;;;;;0.57;0.40;;;;;;;;;;5003825;28;20065;-55
2021/11/29 12:46:30;;;;;;;0.43;0.30;;;;;;;;;;5008902;28;20120;-52
2021/11/29 12:48:57;;;;;;;0.70;0.43;;;;;;;;;;5008221;28;20049;-56
2021/11/29 12:51:43;;;;;;;0.98;0.40;;;;;;;;;;5008306;28;20045;-56
2021/11/29 12:54:28;;;;;;;0.57;0.38;;;;;;;;;;5010268;28;20518;-56
2021/11/29 12:57:12;;;;;;;0.93;0.38;;;;;;;;;;5008353;28;20053;-56
2021/11/29 12:59:54;;;;;;;0.73;0.47;;;;;;;;;;5005694;28;20053;-56
2021/11/29 13:02:38;;;;;;;0.73;0.40;;;;;;;;;;5005961;28;20056;-56
2021/11/29 13:05:25;;;;;;;1.40;0.40;;;;;;;;;;5008158;28;20044;-56
2021/11/29 13:07:56;;;;;;;1.80;0.50;;;;;;;;;;4986775;28;20497;-56
2021/11/29 13:10:41;;;;;;;0.38;0.30;;;;;;;;;;5007423;28;20057;-53
2021/11/29 13:13:23;;;;;;;0.43;0.30;;;;;;;;;;5007534;28;20096;-55
2021/11/29 13:15:53;;;;;;;0.95;0.40;;;;;;;;;;5007308;28;20324;-56
2021/11/29 13:18:38;;;;;;;1.15;0.43;;;;;;;;;;5007542;28;20477;-57
2021/11/29 13:21:04;;;;;;;0.43;0.30;;;;;;;;;;5008532;28;20395;-54
2021/11/29 13:23:30;;;;;;;0.77;0.32;;;;;;;;;;5006010;28;20049;-55
2021/11/29 13:26:03;;;;;;;0.82;0.40;;;;;;;;;;5007874;28;20125;-57
2021/11/29 13:28:28;;;;;;;;;;;;;;;;;;5006550;28;20053;-56
2021/11/29 13:30:54;;;;;;;0.90;0.40;;;;;;;;;;5007015;28;19925;-55
2021/11/29 13:33:20;;;;;;;0.63;0.30;;;;;;;;;;5005073;28;20033;-56
2021/11/29 13:35:47;;;;;;;0.80;0.32;;;;;;;;;;5007018;28;20092;-56
2021/11/29 13:38:13;;;;;;;0.70;0.40;;;;;;;;;;5006945;28;20030;-54
2021/11/29 13:40:38;;;;;;;1.02;0.40;;;;;;;;;;5006743;28;20068;-56
2021/11/29 13:43:05;;;;;;;1.55;0.50;;;;;;;;;;5006943;28;20073;-57
2021/11/29 13:45:32;;;;;;;1.98;0.43;;;;;;;;;;5005089;28;20034;-55
2021/11/29 13:48:08;;;;;;;1.67;0.50;;;;;;;;;;5006694;28;20037;-59
2021/11/29 13:50:35;;;;;;;2.08;0.50;;;;;;;;;;5005635;28;20049;-57
2021/11/29 13:53:01;;;;;;;0.82;0.40;;;;;;;;;;5005019;28;20026;-54
2021/11/29 13:55:28;;;;;;;1.67;0.43;;;;;;;;;;5006282;28;20045;-56
2021/11/29 13:57:57;;;;;;;1.42;0.45;;;;;;;;;;5006500;28;20403;-52
2021/11/29 14:00:27;;;;;;;1.27;0.50;;;;;;;;;;5005413;28;20107;-54
2021/11/29 14:03:04;;;;;;;0.80;0.40;;;;;;;;;;5007013;28;20038;-55
2021/11/29 14:05:32;;;;;;;0.55;0.30;;;;;;;;;;4988972;28;20046;-55
2021/11/29 14:08:00;;;;;;;0.30;0.30;;;;;;;;;;5005905;28;20683;-54
2021/11/29 14:10:49;;;;;;;0.95;0.40;;;;;;;;;;5006840;28;20423;-52
2021/11/29 14:13:23;;;;;;;1.42;0.50;;;;;;;;;;4981367;28;20045;-56
2021/11/29 14:16:10;;;;;;;1.33;0.40;;;;;;;;;;5007255;28;20159;-56
2021/11/29 14:18:42;;;;;;;1.15;0.40;;;;;;;;;;5005530;28;20037;-56
2021/11/29 14:21:13;;;;;;;1.00;0.50;;;;;;;;;;5006345;28;20065;-53
2021/11/29 14:23:47;;;;;;;1.73;0.50;;;;;;;;;;5006532;28;20132;-56
2021/11/29 14:26:12;;;;;;;;;;;;;;;;;;5007267;28;20042;-55
2021/11/29 14:28:38;;;;;;;1.80;0.52;;;;;;;;;;5004029;28;20033;-57
2021/11/29 14:31:05;;;;;;;1.70;0.50;;;;;;;;;;5006526;28;20099;-56
2021/11/29 14:33:38;;;;;;;1.70;0.60;;;;;;;;;;5006092;28;20045;-54
2021/11/29 14:36:24;;;;;;;2.83;1.02;;;;;;;;;;5005620;28;20037;-57
2021/11/29 14:38:50;;;;;;;2.88;0.80;;;;;;;;;;5004147;28;20026;-57
2021/11/29 14:41:16;;;;;;;1.15;0.47;;;;;;;;;;5005143;28;20048;-56
2021/11/29 14:43:51;;;;;;;1.67;0.50;;;;;;;;;;5005993;28;20391;-56
2021/11/29 14:46:31;;;;;;;1.33;0.50;;;;;;;;;;5007237;28;20406;-57